SKVV/VVC METAR and TAF weather

Enter ICAO airport designator
Station Type Date Time Source
SKVV METAR 2019/04/25 17:00 UTC NOAA

SKVV 251700Z 12006KT 9999 BKN017 SCT090 29/23 A2998


Station Type Date Time Source
SKVV Decoded METAR 2019/04/25 17:00 UTC NOAA

Villavicencio / Vanguardia, Colombia (SKVV) 04-10N 073-37W 431M
Apr 25, 2019 - 01:00 PM EDT / 2019.04.25 1700 UTC
Wind: from the ESE (120 degrees) at 7 MPH (6 KT):0
Visibility: greater than 7 mile(s):0
Sky conditions: mostly cloudy
Temperature: 84 F (29 C)
Dew Point: 73 F (23 C)
Relative Humidity: 70%
Pressure (altimeter): 29.98 in. Hg (1015 hPa)
ob: SKVV 251700Z 12006KT 9999 BKN017 SCT090 29/23 A2998
cycle: 17

Station Type Date Time Source
SKVV TAF UTC NOAA

Error!

Example: see airport list